Aérodrome :
LOGIN :

S'inscrire | Disclaimer

   EN    FR    IT 

 










Légende :    VFR   VFR Marginal   IFR   IFR Intensif   IFR Très Intensif
Visi : 
Plafond : 
>= 8 km
>= 3000ft
5 à 8 km
1000 à 3000 ft
1500m à 5 km
500 à 1000 ft
800 à 1500m
200 à 500 ft
< 800m
< 200 ft
Symboles :   Orages  Brouillard  Fortes neiges  Fortes précipitations  Vent > 20 kt
SIGMETs :   Divers  Orages  Givrage  Turbulence  Onde Orograph.  Cendres Volcan.






- Altitude de l'aérodrome : 375 ft
- Code IATA : MST


EHBK - Maastricht Aachen

DERNIER METAR :
  • 232125Z AUTO 18011KT 150V210 9999 FEW032CB 20/11 Q1000

METARs EXPIRÉS :
  • 232055Z AUTO 18012KT 150V210 9999 NSC 20/12 Q1001 NOSIG
  • 232025Z AUTO 18010KT 150V220 9999 NSC 19/12 Q1001 NOSIG
  • 231955Z AUTO 18009KT 150V210 9999 NSC 19/12 Q1001 NOSIG
  • 231925Z AUTO 19008KT 9999 NSC 19/12 Q1002 NOSIG
  • 231855Z AUTO 19009KT 9999 NSC 20/11 Q1002 NOSIG

TAF TAF EHBK
Valide du 23 à 18h jusqu'au 25 à 00h UTC


231655Z 2318/2424 19010KT CAVOK
TEMPO 2323/2403 21018G28KT 6000 SHRA RA SCT020CB
BECMG 2400/2403 24013KT
BECMG 2404/2407 21013KT
BECMG 2407/2410 21015G27KT
BECMG 2416/2418 17009KT
PROB30
TEMPO 2420/2424 7000 RA



MET'MAP, la Météo Aéronautique d'un coup d'oeil ! - Copyright ORBIFLY Décembre 2007 - Disclaimer

ORBIFLY MET'MAP TEAM :

Programmation & Développement : Alexandra Zaïnal
Sur une idée originale de : Baudouin d'Aumeries
Assistance à la programmation : Marc-Olivier Méhu
Soutien technique & logistique : Manuel Goepfert

Contact : metmap@orbifly.com




SOURCES & CREDITS :

   NOAA